Time;durP1;ratioP1;P1;durP2;ratioP2;P2;SDS_P1;SDS_P2;PMS_P1;PMS_P2;Temp;Humidity;BMP_temperature;BMP_pressure;BME280_temperature;BME280_humidity;BME280_pressure;Samples;Min_cycle;Max_cycle;Signal;HPM_P1;HPM_P2
2022/06/10 00:00:58;;;;;;;;;;;12.30;99.90;;;;;;5033256;28;19910;-73
2022/06/10 00:03:26;;;;;;;;;;;12.30;99.90;;;;;;5033230;28;19909;-73
2022/06/10 00:05:57;;;;;;;;;;;12.40;99.90;;;;;;5032924;28;19917;-75
2022/06/10 00:08:26;;;;;;;;;;;12.50;99.90;;;;;;5033190;28;19909;-74
2022/06/10 00:10:53;;;;;;;;;;;12.50;99.90;;;;;;5033181;28;20316;-75
2022/06/10 00:13:22;;;;;;;;;;;12.50;99.90;;;;;;5033239;28;19917;-74
2022/06/10 00:15:48;;;;;;;;;;;12.50;99.90;;;;;;5008273;28;19918;-73
2022/06/10 00:18:16;;;;;;;;;;;12.60;99.90;;;;;;5025792;28;19909;-75
2022/06/10 00:20:43;;;;;;;;;;;12.60;99.90;;;;;;5033018;28;19909;-75
2022/06/10 00:23:10;;;;;;;;;;;12.70;99.90;;;;;;5033125;28;20415;-75
2022/06/10 00:25:38;;;;;;;;;;;12.80;99.90;;;;;;5035584;28;19936;-74
2022/06/10 00:28:05;;;;;;;;;;;12.80;99.90;;;;;;5052358;28;19913;-75
2022/06/10 00:30:32;;;;;;;;;;;12.80;99.90;;;;;;5037187;28;19909;-74
2022/06/10 00:32:59;;;;;;;;;;;12.90;99.90;;;;;;5037076;28;19909;-74
2022/06/10 00:35:26;;;;;;;;;;;13.00;99.90;;;;;;5036827;28;19913;-74
2022/06/10 00:37:53;;;;;;;;;;;13.10;99.90;;;;;;5036911;28;19913;-74
2022/06/10 00:40:27;;;;;;;;;;;13.10;99.90;;;;;;5036963;28;20360;-75
2022/06/10 00:42:56;;;;;;;;;;;13.20;99.90;;;;;;5036721;28;20402;-73
2022/06/10 00:45:41;;;;;;;;;;;13.20;99.90;;;;;;5036564;28;19924;-74
2022/06/10 00:48:10;;;;;;;;;;;13.20;99.90;;;;;;5036693;28;19935;-73
2022/06/10 00:50:37;;;;;;;;;;;13.30;99.90;;;;;;5036456;28;20295;-74
2022/06/10 00:53:06;;;;;;;;;;;13.40;99.90;;;;;;5036497;28;19928;-74
2022/06/10 00:55:36;;;;;;;;;;;13.40;99.90;;;;;;5036504;28;19909;-73
2022/06/10 00:58:05;;;;;;;;;;;13.50;99.90;;;;;;5036607;28;19916;-73
2022/06/10 01:00:32;;;;;;;;;;;13.60;99.90;;;;;;5036454;28;20004;-74
2022/06/10 01:02:58;;;;;;;;;;;13.90;99.90;;;;;;5036582;28;19913;-75
2022/06/10 01:05:27;;;;;;;;;;;14.20;99.90;;;;;;5051562;28;20443;-74
2022/06/10 01:08:01;;;;;;;;;;;14.40;99.20;;;;;;5036319;28;20384;-75
2022/06/10 01:10:30;;;;;;;;;;;14.50;99.40;;;;;;5036422;28;19909;-74
2022/06/10 01:13:15;;;;;;;;;;;14.70;99.20;;;;;;5036313;28;19909;-74
2022/06/10 01:15:42;;;;;;;;;;;15.10;99.10;;;;;;5036017;28;19955;-74
2022/06/10 01:18:14;;;;;;;;;;;15.20;98.30;;;;;;5036203;28;19963;-74
2022/06/10 01:20:43;;;;;;;;;;;15.10;98.50;;;;;;5036116;28;19913;-74
2022/06/10 01:23:25;;;;;;;;;;;14.90;98.60;;;;;;5036296;28;19909;-75
2022/06/10 01:26:06;;;;;;;;;;;14.70;98.60;;;;;;5035813;28;19917;-74
2022/06/10 01:28:33;;;;;;;;;;;14.70;98.80;;;;;;5036203;28;19948;-74
2022/06/10 01:31:07;;;;;;;;;;;14.70;99.10;;;;;;5035966;28;19917;-74
2022/06/10 01:33:37;;;;;;;;;;;14.60;99.40;;;;;;5035871;28;19909;-74
2022/06/10 01:36:17;;;;;;;;;;;14.70;99.00;;;;;;5034487;28;19996;-74
2022/06/10 01:38:46;;;;;;;;;;;14.70;99.10;;;;;;5035878;28;19992;-74
2022/06/10 01:41:14;;;;;;;;;;;14.70;99.00;;;;;;5035905;28;19964;-74
2022/06/10 01:43:58;;;;;;;;;;;14.70;99.10;;;;;;5035597;28;19915;-75
2022/06/10 01:46:30;;;;;;;;;;;14.70;99.10;;;;;;5035676;28;20044;-75
2022/06/10 01:48:57;;;;;;;;;;;14.70;98.70;;;;;;5035745;28;19909;-75
2022/06/10 01:51:27;;;;;;;;;;;14.60;98.70;;;;;;5035487;28;19909;-75
2022/06/10 01:53:57;;;;;;;;;;;14.60;99.10;;;;;;5035352;28;19921;-75
2022/06/10 01:56:30;;;;;;;;;;;14.60;99.20;;;;;;5035358;28;20344;-75
2022/06/10 01:59:00;;;;;;;;;;;14.70;99.40;;;;;;5035784;28;20326;-77
2022/06/10 02:01:32;;;;;;;;;;;14.70;99.20;;;;;;5035462;28;20315;-77
2022/06/10 02:04:02;;;;;;;;;;;14.70;98.90;;;;;;5035372;28;19955;-75
2022/06/10 02:06:30;;;;;;;;;;;14.80;99.00;;;;;;5035242;28;20293;-75
2022/06/10 02:08:58;;;;;;;;;;;14.80;98.80;;;;;;5035370;28;19917;-75
2022/06/10 02:11:26;;;;;;;;;;;14.80;99.10;;;;;;5035228;28;19910;-75
2022/06/10 02:13:59;;;;;;;;;;;14.90;98.00;;;;;;5034935;28;19996;-75
2022/06/10 02:16:28;;;;;;;;;;;14.90;98.40;;;;;;5034957;28;20079;-76
2022/06/10 02:19:24;;;;;;;;;;;14.90;98.50;;;;;;5035066;28;19909;-75
2022/06/10 02:22:02;;;;;;;;;;;14.90;97.90;;;;;;5026035;28;19920;-75
2022/06/10 02:24:41;;;;;;;;;;;14.80;98.00;;;;;;5016828;28;19917;-74
2022/06/10 02:27:14;;;;;;;;;;;14.90;97.80;;;;;;5034858;28;19909;-75
2022/06/10 02:29:45;;;;;;;;;;;14.90;97.60;;;;;;5034549;28;19909;-75
2022/06/10 02:32:12;;;;;;;;;;;14.90;97.80;;;;;;5034887;28;19916;-76
2022/06/10 02:34:38;;;;;;;;;;;15.00;97.60;;;;;;5022366;28;20008;-75
2022/06/10 02:37:16;;;;;;;;;;;15.10;97.70;;;;;;5003316;28;20025;-75
2022/06/10 02:39:57;;;;;;;;;;;15.10;98.10;;;;;;4994456;28;19910;-75
2022/06/10 02:42:36;;;;;;;;;;;15.20;97.20;;;;;;4994738;28;19968;-75
2022/06/10 02:45:09;;;;;;;;;;;15.20;97.30;;;;;;4994530;28;19918;-75
2022/06/10 02:47:44;;;;;;;;;;;15.20;97.20;;;;;;5008864;28;20414;-76
2022/06/10 02:50:12;;;;;;;;;;;15.20;97.10;;;;;;5034387;28;19909;-75
2022/06/10 02:52:39;;;;;;;;;;;15.20;97.40;;;;;;5034264;28;19921;-75
2022/06/10 02:55:07;;;;;;;;;;;15.20;97.40;;;;;;5034201;28;19917;-76
2022/06/10 03:03:11;;;;;;;;;;;15.20;96.80;;;;;;5034333;28;19916;-75
2022/06/10 03:05:39;;;;;;;;;;;15.20;97.20;;;;;;5033643;28;19971;-74
2022/06/10 03:08:13;;;;;;;;;;;15.30;97.40;;;;;;5034015;28;19920;-75
2022/06/10 03:10:58;;;;;;;;;;;15.30;96.20;;;;;;5034082;28;20265;-74
2022/06/10 03:13:42;;;;;;;;;;;15.40;96.20;;;;;;5034074;28;20008;-75
2022/06/10 03:16:28;;;;;;;;;;;15.40;96.80;;;;;;5033967;28;19913;-75
2022/06/10 03:18:54;;;;;;;;;;;15.50;97.40;;;;;;5034081;28;19913;-75
2022/06/10 03:21:38;;;;;;;;;;;15.40;96.30;;;;;;5033822;28;19916;-74
2022/06/10 03:24:14;;;;;;;;;;;15.50;96.20;;;;;;5033868;28;19959;-74
2022/06/10 03:26:46;;;;;;;;;;;15.50;96.70;;;;;;5016065;28;20008;-74
2022/06/10 03:29:29;;;;;;;;;;;15.50;96.50;;;;;;5033684;28;19910;-74
2022/06/10 03:31:59;;;;;;;;;;;15.40;96.20;;;;;;5033927;28;19948;-75
2022/06/10 03:34:25;;;;;;;;;;;15.40;96.70;;;;;;5033375;28;19916;-74
2022/06/10 03:36:53;;;;;;;;;;;15.40;96.40;;;;;;5033682;28;19909;-74
2022/06/10 03:39:21;;;;;;;;;;;15.40;96.80;;;;;;5033670;28;19909;-73
2022/06/10 03:41:58;;;;;;;;;;;15.50;96.60;;;;;;5033305;28;19917;-73
2022/06/10 03:44:26;;;;;;;;;;;15.50;96.40;;;;;;5033450;28;19920;-73
2022/06/10 03:46:54;;;;;;;;;;;15.50;96.40;;;;;;5033085;28;19916;-74
2022/06/10 03:49:24;;;;;;;;;;;15.40;96.20;;;;;;5033086;28;19962;-74
2022/06/10 03:51:51;;;;;;;;;;;15.40;96.20;;;;;;5033330;28;20264;-74
2022/06/10 03:54:19;;;;;;;;;;;15.40;96.10;;;;;;5033448;28;20372;-73
2022/06/10 03:56:46;;;;;;;;;;;15.50;96.10;;;;;;5033295;28;19916;-73
2022/06/10 03:59:13;;;;;;;;;;;15.50;96.50;;;;;;5032582;28;19916;-76
2022/06/10 04:01:39;;;;;;;;;;;15.50;96.30;;;;;;5033115;28;19909;-73
2022/06/10 04:04:06;;;;;;;;;;;15.50;97.00;;;;;;5033159;28;19928;-74
2022/06/10 04:06:33;;;;;;;;;;;15.50;96.50;;;;;;5033141;28;20283;-73
2022/06/10 04:08:59;;;;;;;;;;;15.50;96.60;;;;;;5033164;28;19999;-75
2022/06/10 04:11:26;;;;;;;;;;;15.50;96.50;;;;;;5033373;28;19919;-74
2022/06/10 04:13:53;;;;;;;;;;;15.50;96.40;;;;;;5032923;28;19917;-74
2022/06/10 04:16:19;;;;;;;;;;;15.50;96.80;;;;;;5033016;28;20323;-74
2022/06/10 04:18:46;;;;;;;;;;;15.60;96.20;;;;;;5032945;28;20008;-74
2022/06/10 04:21:13;;;;;;;;;;;15.60;96.10;;;;;;5033018;28;19909;-74
2022/06/10 04:23:40;;;;;;;;;;;15.60;96.10;;;;;;5032685;28;19909;-74
2022/06/10 04:26:06;;;;;;;;;;;15.60;95.90;;;;;;5032849;28;19923;-75
2022/06/10 04:28:33;;;;;;;;;;;15.60;95.70;;;;;;5032806;28;19963;-76
2022/06/10 04:31:00;;;;;;;;;;;15.60;95.80;;;;;;5032793;28;20247;-75
2022/06/10 04:33:27;;;;;;;;;;;15.60;96.20;;;;;;5032776;28;19909;-75
2022/06/10 04:35:54;;;;;;;;;;;15.60;96.00;;;;;;5032631;28;19909;-76
2022/06/10 04:38:22;;;;;;;;;;;15.50;96.20;;;;;;5032665;28;20352;-76
2022/06/10 04:40:49;;;;;;;;;;;15.60;96.40;;;;;;5032840;28;19913;-74
2022/06/10 04:43:16;;;;;;;;;;;15.60;96.40;;;;;;5032783;28;19932;-74
2022/06/10 04:45:45;;;;;;;;;;;15.60;96.60;;;;;;5032473;28;19921;-75
2022/06/10 04:48:12;;;;;;;;;;;15.60;96.70;;;;;;5032560;28;20048;-75
2022/06/10 04:50:40;;;;;;;;;;;15.60;96.40;;;;;;5014882;28;19909;-74
2022/06/10 04:53:07;;;;;;;;;;;15.50;96.30;;;;;;5032446;28;19921;-74
2022/06/10 04:55:34;;;;;;;;;;;15.50;96.10;;;;;;5032475;28;19909;-74
2022/06/10 04:58:01;;;;;;;;;;;15.50;96.40;;;;;;5032715;28;20375;-74
2022/06/10 05:00:32;;;;;;;;;;;15.40;97.00;;;;;;5032709;28;19910;-74
2022/06/10 05:02:59;;;;;;;;;;;15.40;97.20;;;;;;5032517;28;19949;-74
2022/06/10 05:05:26;;;;;;;;;;;15.50;96.60;;;;;;5032305;28;19928;-75
2022/06/10 05:07:53;;;;;;;;;;;15.40;96.70;;;;;;5032405;28;20363;-75
2022/06/10 05:10:20;;;;;;;;;;;15.40;96.50;;;;;;5032938;28;19913;-74
2022/06/10 05:12:47;;;;;;;;;;;15.40;96.50;;;;;;5035886;28;19992;-75
2022/06/10 05:15:14;;;;;;;;;;;15.40;96.60;;;;;;5035922;28;19913;-74
2022/06/10 05:17:41;;;;;;;;;;;15.40;96.30;;;;;;5035883;28;20360;-73
2022/06/10 05:20:09;;;;;;;;;;;15.30;96.00;;;;;;5035786;28;19948;-74
2022/06/10 05:22:35;;;;;;;;;;;15.30;95.60;;;;;;5036088;28;20315;-74
2022/06/10 05:25:03;;;;;;;;;;;15.30;95.90;;;;;;5036023;28;19917;-75
2022/06/10 05:27:30;;;;;;;;;;;15.20;95.90;;;;;;5035796;28;19909;-73
2022/06/10 05:29:56;;;;;;;;;;;15.20;96.10;;;;;;5035849;28;19917;-74
2022/06/10 05:32:23;;;;;;;;;;;15.10;96.30;;;;;;5035778;28;20367;-75
2022/06/10 05:34:50;;;;;;;;;;;15.10;96.20;;;;;;5035765;28;19969;-75
2022/06/10 05:37:20;;;;;;;;;;;15.10;95.80;;;;;;5035596;28;20371;-74
2022/06/10 05:39:47;;;;;;;;;;;15.10;96.00;;;;;;5035403;28;19916;-75
2022/06/10 05:42:14;;;;;;;;;;;15.00;96.10;;;;;;5035643;28;19909;-74
2022/06/10 05:44:42;;;;;;;;;;;15.10;96.70;;;;;;5035603;28;19917;-75
2022/06/10 05:47:10;;;;;;;;;;;15.00;96.40;;;;;;5035325;28;20281;-74
2022/06/10 05:49:38;;;;;;;;;;;14.90;96.30;;;;;;5035099;28;20004;-75
2022/06/10 05:52:06;;;;;;;;;;;15.00;96.20;;;;;;5035016;28;19917;-75
2022/06/10 05:54:34;;;;;;;;;;;14.90;96.40;;;;;;5035453;28;19936;-74
2022/06/10 05:57:00;;;;;;;;;;;14.90;96.30;;;;;;5050729;28;20320;-75
2022/06/10 05:59:29;;;;;;;;;;;14.90;96.30;;;;;;5035212;28;19955;-74
2022/06/10 06:01:58;;;;;;;;;;;14.80;96.40;;;;;;5035295;28;19909;-75
2022/06/10 06:04:25;;;;;;;;;;;14.80;96.60;;;;;;5034937;28;20016;-75
2022/06/10 06:06:51;;;;;;;;;;;14.80;96.80;;;;;;5035131;28;19909;-75
2022/06/10 06:09:19;;;;;;;;;;;14.70;96.50;;;;;;5035116;28;20368;-75
2022/06/10 06:11:47;;;;;;;;;;;14.70;96.60;;;;;;5034925;28;19967;-75
2022/06/10 06:14:17;;;;;;;;;;;14.60;96.30;;;;;;5034894;28;19916;-77
2022/06/10 06:16:45;;;;;;;;;;;14.60;96.30;;;;;;5035026;28;19909;-76
2022/06/10 06:19:12;;;;;;;;;;;14.50;96.70;;;;;;5034943;28;19909;-75
2022/06/10 06:21:39;;;;;;;;;;;14.50;96.50;;;;;;5034327;28;19916;-76
2022/06/10 06:24:05;;;;;;;;;;;14.50;96.80;;;;;;5049895;28;20269;-76
2022/06/10 06:26:32;;;;;;;;;;;14.40;96.50;;;;;;5034952;28;19913;-76
2022/06/10 06:28:59;;;;;;;;;;;14.40;96.60;;;;;;5034736;28;19916;-76
2022/06/10 06:31:26;;;;;;;;;;;14.40;96.40;;;;;;5034702;28;19920;-77
2022/06/10 06:33:53;;;;;;;;;;;14.30;96.60;;;;;;5034469;28;19909;-75
2022/06/10 06:36:21;;;;;;;;;;;14.30;96.60;;;;;;5034702;28;19910;-76
2022/06/10 06:38:48;;;;;;;;;;;14.30;96.60;;;;;;5034557;28;19916;-76
2022/06/10 06:41:15;;;;;;;;;;;14.20;96.70;;;;;;5034354;28;19932;-76
2022/06/10 06:43:42;;;;;;;;;;;14.20;96.90;;;;;;5034013;28;19935;-75
2022/06/10 06:46:13;;;;;;;;;;;14.20;97.20;;;;;;5034359;28;19963;-76
2022/06/10 06:48:40;;;;;;;;;;;14.10;96.90;;;;;;5016557;28;19949;-75
2022/06/10 06:51:07;;;;;;;;;;;14.10;96.90;;;;;;5032738;28;19917;-77
2022/06/10 06:53:33;;;;;;;;;;;14.10;96.90;;;;;;5031975;28;19971;-76
2022/06/10 06:56:04;;;;;;;;;;;14.00;96.80;;;;;;5032245;28;20000;-74
2022/06/10 06:58:31;;;;;;;;;;;14.00;97.00;;;;;;5032229;28;20004;-75
2022/06/10 07:00:59;;;;;;;;;;;14.00;97.40;;;;;;5032011;28;19940;-74
2022/06/10 07:03:26;;;;;;;;;;;13.90;97.30;;;;;;5031779;28;19913;-75
2022/06/10 07:05:53;;;;;;;;;;;13.80;97.30;;;;;;5031075;28;20004;-75
2022/06/10 07:08:20;;;;;;;;;;;13.80;97.50;;;;;;5031876;28;20023;-75
2022/06/10 07:10:47;;;;;;;;;;;13.80;97.60;;;;;;5031903;28;20553;-74
2022/06/10 07:13:13;;;;;;;;;;;13.70;97.60;;;;;;5031925;28;19913;-75
2022/06/10 07:15:43;;;;;;;;;;;13.70;97.80;;;;;;5031500;28;19955;-74
2022/06/10 07:18:10;;;;;;;;;;;13.60;97.70;;;;;;5031122;28;19963;-74
2022/06/10 07:20:37;;;;;;;;;;;13.60;97.90;;;;;;5031866;28;20453;-75
2022/06/10 07:23:04;;;;;;;;;;;13.60;98.00;;;;;;5031691;28;19913;-74
2022/06/10 07:25:31;;;;;;;;;;;13.60;98.30;;;;;;5031547;28;19921;-76
2022/06/10 07:27:58;;;;;;;;;;;13.50;98.50;;;;;;5031717;28;19909;-76
2022/06/10 07:30:26;;;;;;;;;;;13.50;98.30;;;;;;5031076;28;19919;-77
2022/06/10 07:32:53;;;;;;;;;;;13.40;98.50;;;;;;5031574;28;19924;-73
2022/06/10 07:35:21;;;;;;;;;;;13.40;98.80;;;;;;5030402;28;19917;-74
2022/06/10 07:37:48;;;;;;;;;;;13.40;98.50;;;;;;5030855;28;19932;-74
2022/06/10 07:43:19;;;;;;;;;;;13.40;99.00;;;;;;5031358;28;19920;-75
2022/06/10 07:45:46;;;;;;;;;;;13.30;98.60;;;;;;5030856;28;19988;-75
2022/06/10 07:48:13;;;;;;;;;;;13.30;98.50;;;;;;5030879;28;19909;-75
2022/06/10 07:50:42;;;;;;;;;;;13.30;98.60;;;;;;5030842;28;19916;-74
2022/06/10 07:53:09;;;;;;;;;;;13.30;99.30;;;;;;5030933;28;19948;-74
2022/06/10 07:55:36;;;;;;;;;;;13.30;98.50;;;;;;5030989;28;19984;-75
2022/06/10 07:58:03;;;;;;;;;;;13.30;98.40;;;;;;5030677;28;20287;-75
2022/06/10 08:00:30;;;;;;;;;;;13.20;98.70;;;;;;5031051;28;19909;-75
2022/06/10 08:02:59;;;;;;;;;;;13.20;98.40;;;;;;5030906;28;19945;-75
2022/06/10 08:05:26;;;;;;;;;;;13.20;98.50;;;;;;5030645;28;19925;-74
2022/06/10 08:07:53;;;;;;;;;;;13.20;98.40;;;;;;5030601;28;19913;-73
2022/06/10 08:10:21;;;;;;;;;;;13.20;98.40;;;;;;5045723;28;20536;-75
2022/06/10 08:12:48;;;;;;;;;;;13.20;98.60;;;;;;5030956;28;19909;-75
2022/06/10 08:15:15;;;;;;;;;;;13.20;98.40;;;;;;5030924;28;19951;-75
2022/06/10 08:17:43;;;;;;;;;;;13.20;98.40;;;;;;5030683;28;19909;-73
2022/06/10 08:23:15;;;;;;;;;;;13.10;98.60;;;;;;5030453;28;19920;-75
2022/06/10 08:25:42;;;;;;;;;;;13.10;98.70;;;;;;5030513;28;19925;-74
2022/06/10 08:28:09;;;;;;;;;;;13.10;98.40;;;;;;5030804;28;19917;-74
2022/06/10 08:30:36;;;;;;;;;;;13.00;98.50;;;;;;5030525;28;20364;-74
2022/06/10 08:33:03;;;;;;;;;;;13.00;99.00;;;;;;5030460;28;19996;-75
2022/06/10 08:35:31;;;;;;;;;;;13.00;98.50;;;;;;5030046;28;19975;-75
2022/06/10 08:37:58;;;;;;;;;;;12.90;98.50;;;;;;5030754;28;19909;-73
2022/06/10 08:40:45;;;;;;;;;;;13.00;98.60;;;;;;5030622;28;20372;-74
2022/06/10 08:43:35;;;;;;;;;;;12.90;98.60;;;;;;5023293;28;19959;-74
2022/06/10 08:46:04;;;;;;;;;;;12.90;98.60;;;;;;5027004;28;19917;-74
2022/06/10 08:48:39;;;;;;;;;;;12.90;98.50;;;;;;5033957;28;19909;-73
2022/06/10 08:51:27;;;;;;;;;;;12.90;98.90;;;;;;5034365;28;19916;-75
2022/06/10 08:54:03;;;;;;;;;;;12.90;98.90;;;;;;5034078;28;20363;-74
2022/06/10 08:56:49;;;;;;;;;;;12.80;98.80;;;;;;5034312;28;20370;-75
2022/06/10 08:59:16;;;;;;;;;;;12.80;99.20;;;;;;5034441;28;19913;-74
2022/06/10 09:01:50;;;;;;;;;;;12.80;98.80;;;;;;5033686;28;19909;-74
2022/06/10 09:04:26;;;;;;;;;;;12.80;99.10;;;;;;5033969;28;19917;-74
2022/06/10 09:06:54;;;;;;;;;;;12.80;99.20;;;;;;5036366;28;19909;-75
2022/06/10 09:09:22;;;;;;;;;;;12.70;99.70;;;;;;5036128;28;20378;-75
2022/06/10 09:12:01;;;;;;;;;;;12.70;99.10;;;;;;5036071;28;20360;-75
2022/06/10 09:14:29;;;;;;;;;;;12.70;99.00;;;;;;5035845;28;20019;-75
2022/06/10 09:17:03;;;;;;;;;;;12.70;99.40;;;;;;5035879;28;19909;-75
2022/06/10 09:19:48;;;;;;;;;;;12.60;99.30;;;;;;5035400;28;19909;-74
2022/06/10 09:22:21;;;;;;;;;;;12.70;99.50;;;;;;5036006;28;19913;-74
2022/06/10 09:24:54;;;;;;;;;;;12.60;99.90;;;;;;5035891;28;19917;-73
2022/06/10 09:27:21;;;;;;;;;;;12.60;99.50;;;;;;5035478;28;19927;-74
2022/06/10 09:29:48;;;;;;;;;;;12.60;99.80;;;;;;5035488;28;19932;-74
2022/06/10 09:32:21;;;;;;;;;;;12.60;99.20;;;;;;5035774;28;19956;-75
2022/06/10 09:35:02;;;;;;;;;;;12.60;99.60;;;;;;5035737;28;19909;-74
2022/06/10 09:37:29;;;;;;;;;;;12.40;99.40;;;;;;5036004;28;19932;-75
2022/06/10 09:43:03;;;;;;;;;;;12.40;99.70;;;;;;5035636;28;19916;-74
2022/06/10 09:45:42;;;;;;;;;;;12.40;99.50;;;;;;5035176;28;19917;-74
2022/06/10 09:48:27;;;;;;;;;;;12.40;99.60;;;;;;5035456;28;19909;-75
2022/06/10 09:51:06;;;;;;;;;;;12.40;99.80;;;;;;5035464;28;19913;-74
2022/06/10 09:53:59;;;;;;;;;;;12.40;99.90;;;;;;5035022;28;19921;-74
2022/06/10 09:56:35;;;;;;;;;;;12.30;99.60;;;;;;5035181;28;19929;-74
2022/06/10 09:59:29;;;;;;;;;;;12.30;99.90;;;;;;5034321;28;20454;-75
2022/06/10 10:02:20;;;;;;;;;;;12.30;99.90;;;;;;5035335;28;19913;-74
2022/06/10 10:04:51;;;;;;;;;;;12.30;99.90;;;;;;5035288;28;19921;-74
2022/06/10 10:07:27;;;;;;;;;;;12.30;99.90;;;;;;5035252;28;19913;-74
2022/06/10 10:09:57;;;;;;;;;;;12.30;99.80;;;;;;5034920;28;20316;-74
2022/06/10 10:12:41;;;;;;;;;;;12.30;99.90;;;;;;5035392;28;20442;-74
2022/06/10 10:15:14;;;;;;;;;;;12.30;99.90;;;;;;5035340;28;19917;-74
2022/06/10 10:17:56;;;;;;;;;;;12.30;99.90;;;;;;5034761;28;19932;-74
2022/06/10 10:20:40;;;;;;;;;;;12.30;99.90;;;;;;5035141;28;19909;-74
2022/06/10 10:23:07;;;;;;;;;;;12.20;99.90;;;;;;5034975;28;20314;-74
2022/06/10 10:25:34;;;;;;;;;;;12.30;99.90;;;;;;5034639;28;20040;-73
2022/06/10 10:28:02;;;;;;;;;;;12.20;99.90;;;;;;5034755;28;19909;-74
2022/06/10 10:30:44;;;;;;;;;;;12.20;99.90;;;;;;5034741;28;19940;-75
2022/06/10 10:33:12;;;;;;;;;;;12.20;99.90;;;;;;5034478;28;19909;-75
2022/06/10 10:35:41;;;;;;;;;;;12.20;99.90;;;;;;5034525;28;19909;-74
2022/06/10 10:38:14;;;;;;;;;;;12.10;99.90;;;;;;5034665;28;19909;-74
2022/06/10 10:40:45;;;;;;;;;;;12.20;99.90;;;;;;5029886;28;20081;-73
2022/06/10 10:43:31;;;;;;;;;;;12.20;99.90;;;;;;4994580;28;19992;-75
2022/06/10 10:46:02;;;;;;;;;;;12.10;99.90;;;;;;4992473;28;20292;-75
2022/06/10 10:48:32;;;;;;;;;;;12.10;99.90;;;;;;4996199;28;20004;-74
2022/06/10 10:51:20;;;;;;;;;;;12.10;99.90;;;;;;4998313;28;19913;-75
2022/06/10 10:53:50;;;;;;;;;;;12.10;99.90;;;;;;5006842;28;19925;-75
2022/06/10 10:56:17;;;;;;;;;;;12.00;99.90;;;;;;4992040;28;20021;-75
2022/06/10 10:58:52;;;;;;;;;;;12.00;99.90;;;;;;4992358;28;19913;-75
2022/06/10 11:01:51;;;;;;;;;;;12.00;99.90;;;;;;4991645;28;20029;-75
2022/06/10 11:04:18;;;;;;;;;;;12.00;99.90;;;;;;4991809;28;19918;-74
2022/06/10 11:06:44;;;;;;;;;;;11.90;99.90;;;;;;4992028;28;19918;-75
2022/06/10 11:09:16;;;;;;;;;;;11.90;99.90;;;;;;4991970;28;19974;-74
2022/06/10 11:11:44;;;;;;;;;;;11.90;99.90;;;;;;4991678;28;20013;-75
2022/06/10 11:14:29;;;;;;;;;;;11.90;99.90;;;;;;4991590;28;19910;-75
2022/06/10 11:17:14;;;;;;;;;;;11.90;99.90;;;;;;4991754;28;19920;-75
2022/06/10 11:19:51;;;;;;;;;;;11.90;99.90;;;;;;4991676;28;20336;-75
2022/06/10 11:22:19;;;;;;;;;;;11.90;99.90;;;;;;4991833;28;19918;-74
2022/06/10 11:24:49;;;;;;;;;;;11.90;99.90;;;;;;4991707;28;19925;-74
2022/06/10 11:27:20;;;;;;;;;;;11.90;99.90;;;;;;4991368;28;19917;-74
2022/06/10 11:30:01;;;;;;;;;;;11.90;99.90;;;;;;4991256;28;19913;-74
2022/06/10 11:32:30;;;;;;;;;;;11.90;99.90;;;;;;4991530;28;20379;-74
2022/06/10 11:35:00;;;;;;;;;;;11.90;99.90;;;;;;4991603;28;20364;-74
2022/06/10 11:37:31;;;;;;;;;;;11.90;99.90;;;;;;4991460;28;20378;-74
2022/06/10 11:40:11;;;;;;;;;;;11.90;99.90;;;;;;4991063;28;20005;-74
2022/06/10 11:42:47;;;;;;;;;;;11.90;99.90;;;;;;4991416;28;20356;-74
2022/06/10 11:45:24;;;;;;;;;;;11.90;99.90;;;;;;4991291;28;19924;-74
2022/06/10 11:47:55;;;;;;;;;;;11.80;99.90;;;;;;4990883;28;19932;-75
2022/06/10 11:50:28;;;;;;;;;;;11.80;99.90;;;;;;4991219;28;19920;-74
2022/06/10 11:53:24;;;;;;;;;;;11.80;99.90;;;;;;4990635;28;19930;-74
2022/06/10 11:59:42;;;;;;;;;;;11.80;99.90;;;;;;4986268;28;19917;-73
2022/06/10 12:01:27;;;;;;;;;;;11.80;99.90;;;;;;4991343;28;20356;-74
2022/06/10 12:03:59;;;;;;;;;;;11.80;99.90;;;;;;4990921;28;20001;-75
2022/06/10 12:06:31;;;;;;;;;;;11.80;99.90;;;;;;4990955;28;20012;-75
2022/06/10 12:09:00;;;;;;;;;;;11.80;99.90;;;;;;4991205;28;19920;-75
2022/06/10 12:11:50;;;;;;;;;;;11.80;99.90;;;;;;4991088;28;19909;-74
2022/06/10 12:14:36;;;;;;;;;;;11.70;99.90;;;;;;4991243;28;19941;-74
2022/06/10 12:17:05;;;;;;;;;;;11.70;99.90;;;;;;4990911;28;19910;-74
2022/06/10 12:19:36;;;;;;;;;;;11.70;99.90;;;;;;4990429;28;19992;-74
2022/06/10 12:22:03;;;;;;;;;;;11.70;99.90;;;;;;4990564;28;20339;-75
2022/06/10 12:24:31;;;;;;;;;;;11.60;99.90;;;;;;4990827;28;19914;-75
2022/06/10 12:27:11;;;;;;;;;;;11.60;99.90;;;;;;4991197;28;19960;-75
2022/06/10 12:29:38;;;;;;;;;;;11.60;99.90;;;;;;4991000;28;19914;-74
2022/06/10 12:32:05;;;;;;;;;;;11.60;99.90;;;;;;4990546;28;19913;-74
2022/06/10 12:34:34;;;;;;;;;;;11.60;99.90;;;;;;4991007;28;19941;-75
2022/06/10 12:37:21;;;;;;;;;;;11.60;99.90;;;;;;4990884;28;19937;-74
2022/06/10 12:39:57;;;;;;;;;;;11.60;99.90;;;;;;4990416;28;19910;-74
2022/06/10 12:42:44;;;;;;;;;;;11.60;99.90;;;;;;4990680;28;19910;-74
2022/06/10 12:45:22;;;;;;;;;;;11.50;99.90;;;;;;4998930;28;20358;-73
2022/06/10 12:47:52;;;;;;;;;;;11.50;99.90;;;;;;5029932;28;19909;-75
2022/06/10 12:50:21;;;;;;;;;;;11.60;99.90;;;;;;5030829;28;19913;-74
2022/06/10 12:52:51;;;;;;;;;;;11.60;99.90;;;;;;5030577;28;19917;-74
2022/06/10 12:55:24;;;;;;;;;;;11.60;99.90;;;;;;5030656;28;20054;-74
2022/06/10 12:57:51;;;;;;;;;;;11.50;99.90;;;;;;5030288;28;19913;-74
2022/06/10 13:00:26;;;;;;;;;;;11.50;99.90;;;;;;5030418;28;19913;-76
2022/06/10 13:02:53;;;;;;;;;;;11.50;99.90;;;;;;5030477;28;20364;-75
2022/06/10 13:05:22;;;;;;;;;;;11.50;99.90;;;;;;5030565;28;19925;-75
2022/06/10 13:07:49;;;;;;;;;;;11.50;99.90;;;;;;5030387;28;20372;-75
2022/06/10 13:10:34;;;;;;;;;;;11.50;99.90;;;;;;5030158;28;19913;-75
2022/06/10 13:13:15;;;;;;;;;;;11.40;99.90;;;;;;5030293;28;19932;-74
2022/06/10 13:15:42;;;;;;;;;;;11.40;99.90;;;;;;5030165;28;19949;-75
2022/06/10 13:18:18;;;;;;;;;;;11.40;99.90;;;;;;5030221;28;19953;-75
2022/06/10 13:20:49;;;;;;;;;;;11.40;99.90;;;;;;5030454;28;19967;-75
2022/06/10 13:23:16;;;;;;;;;;;11.40;99.90;;;;;;5030452;28;19917;-75
2022/06/10 13:25:44;;;;;;;;;;;11.40;99.90;;;;;;5029363;28;20280;-75
2022/06/10 13:28:15;;;;;;;;;;;11.30;99.90;;;;;;5030284;28;19940;-74
2022/06/10 13:30:42;;;;;;;;;;;11.30;99.90;;;;;;5030332;28;20051;-75
2022/06/10 13:33:15;;;;;;;;;;;11.40;99.90;;;;;;5032080;28;19913;-75
2022/06/10 13:35:45;;;;;;;;;;;11.40;99.90;;;;;;5033692;28;19913;-75
2022/06/10 13:38:43;;;;;;;;;;;11.40;99.90;;;;;;5034203;28;19913;-75
2022/06/10 13:44:15;;;;;;;;;;;11.40;99.90;;;;;;5034410;28;20268;-74
2022/06/10 13:46:46;;;;;;;;;;;11.40;99.90;;;;;;5034156;28;20035;-74
2022/06/10 13:52:26;;;;;;;;;;;11.40;99.90;;;;;;5033544;28;19928;-75
2022/06/10 13:54:53;;;;;;;;;;;11.40;99.90;;;;;;5033050;28;20004;-74
2022/06/10 13:57:26;;;;;;;;;;;11.30;99.90;;;;;;5033632;28;19944;-74
2022/06/10 13:59:58;;;;;;;;;;;11.30;99.90;;;;;;5033362;28;19991;-74
2022/06/10 14:02:27;;;;;;;;;;;11.20;99.90;;;;;;5033342;28;19909;-74
2022/06/10 14:04:54;;;;;;;;;;;11.20;99.90;;;;;;5033099;28;19917;-74
2022/06/10 14:07:26;;;;;;;;;;;11.20;99.90;;;;;;5015430;28;19917;-74
2022/06/10 14:09:53;;;;;;;;;;;11.20;99.90;;;;;;5014792;28;19909;-75
2022/06/10 14:12:21;;;;;;;;;;;11.20;99.90;;;;;;5033196;28;20318;-74
2022/06/10 14:14:48;;;;;;;;;;;11.20;99.90;;;;;;5032823;28;19958;-74
2022/06/10 14:17:15;;;;;;;;;;;11.30;99.90;;;;;;5032808;28;19913;-75
2022/06/10 14:19:52;;;;;;;;;;;11.30;99.90;;;;;;5033089;28;20304;-75
2022/06/10 14:22:25;;;;;;;;;;;11.30;99.90;;;;;;5033276;28;20604;-74
2022/06/10 14:25:10;;;;;;;;;;;11.30;99.90;;;;;;5033077;28;20648;-75
2022/06/10 14:27:37;;;;;;;;;;;11.30;99.90;;;;;;5032886;28;20331;-74
2022/06/10 14:30:13;;;;;;;;;;;11.30;99.90;;;;;;5032749;28;19917;-75
2022/06/10 14:32:42;;;;;;;;;;;11.30;99.90;;;;;;5032914;28;19920;-75
2022/06/10 14:35:26;;;;;;;;;;;11.30;99.90;;;;;;5032961;28;19964;-74
2022/06/10 14:38:07;;;;;;;;;;;11.30;99.90;;;;;;5032740;28;19909;-75
2022/06/10 14:40:34;;;;;;;;;;;11.40;99.90;;;;;;5032879;28;19913;-75
2022/06/10 14:43:06;;;;;;;;;;;11.40;99.90;;;;;;5031963;28;19913;-75
2022/06/10 14:45:38;;;;;;;;;;;11.40;99.90;;;;;;5032327;28;20234;-75
2022/06/10 14:48:05;;;;;;;;;;;11.30;99.90;;;;;;5032670;28;19916;-75
2022/06/10 14:50:33;;;;;;;;;;;11.40;99.90;;;;;;5032732;28;19963;-75
2022/06/10 14:53:00;;;;;;;;;;;11.40;99.90;;;;;;5032252;28;20326;-75
2022/06/10 14:55:30;;;;;;;;;;;11.40;99.90;;;;;;5032243;28;19967;-75
2022/06/10 14:57:59;;;;;;;;;;;11.30;99.90;;;;;;5032364;28;19956;-75
2022/06/10 15:00:27;;;;;;;;;;;11.30;99.90;;;;;;5032469;28;19913;-75
2022/06/10 15:02:54;;;;;;;;;;;11.30;99.90;;;;;;5032301;28;19909;-75